Time;durP1;ratioP1;P1;durP2;ratioP2;P2;SDS_P1;SDS_P2;PMS_P1;PMS_P2;Temp;Humidity;BMP_temperature;BMP_pressure;BME280_temperature;BME280_humidity;BME280_pressure;Samples;Min_cycle;Max_cycle;Signal;HPM_P1;HPM_P2
2021/12/09 00:01:49;;;;;;;6.47;2.22;;;4.70;99.90;;;;;;5055084;28;20025;-73
2021/12/09 00:04:24;;;;;;;5.63;2.17;;;4.70;99.90;;;;;;5054525;28;20058;-75
2021/12/09 00:06:50;;;;;;;11.55;4.40;;;4.60;99.90;;;;;;5054915;28;20513;-73
2021/12/09 00:09:20;;;;;;;9.00;3.80;;;4.60;99.90;;;;;;5054379;28;20139;-76
2021/12/09 00:11:47;;;;;;;7.63;2.63;;;4.70;99.90;;;;;;5054389;28;20025;-76
2021/12/09 00:14:20;;;;;;;8.05;2.25;;;4.60;99.90;;;;;;5054573;28;20017;-76
2021/12/09 00:16:46;;;;;;;6.95;2.15;;;4.60;99.90;;;;;;5054533;28;20067;-72
2021/12/09 00:19:12;;;;;;;3.50;1.63;;;4.70;99.90;;;;;;5054348;28;20032;-74
2021/12/09 00:21:38;;;;;;;9.02;2.20;;;4.70;99.90;;;;;;5054169;28;20058;-72
2021/12/09 00:24:04;;;;;;;3.85;1.98;;;4.70;99.90;;;;;;5054328;28;20017;-73
2021/12/09 00:26:30;;;;;;;7.00;2.13;;;4.60;99.90;;;;;;5053994;28;20092;-73
2021/12/09 00:28:56;;;;;;;7.82;2.15;;;4.60;99.90;;;;;;5054075;28;20045;-75
2021/12/09 00:31:23;;;;;;;6.75;2.25;;;4.60;99.90;;;;;;5053958;28;20025;-73
2021/12/09 00:33:48;;;;;;;7.68;2.22;;;4.50;99.90;;;;;;5053969;28;20556;-73
2021/12/09 00:36:26;;;;;;;7.97;2.20;;;4.50;99.90;;;;;;5053409;28;20052;-75
2021/12/09 00:38:55;;;;;;;8.18;2.20;;;4.50;99.90;;;;;;5054161;28;20372;-75
2021/12/09 00:41:21;;;;;;;9.95;2.60;;;4.50;99.90;;;;;;5054094;28;20033;-77
2021/12/09 00:43:47;;;;;;;7.03;2.70;;;4.50;99.90;;;;;;5053739;28;20030;-71
2021/12/09 00:46:12;;;;;;;9.68;3.75;;;4.50;99.90;;;;;;5053685;28;20465;-73
2021/12/09 00:48:38;;;;;;;13.18;4.05;;;4.50;99.90;;;;;;5053604;28;20025;-75
2021/12/09 00:51:05;;;;;;;10.35;3.55;;;4.50;99.90;;;;;;5053638;28;20048;-70
2021/12/09 00:53:32;;;;;;;11.13;3.60;;;4.60;99.90;;;;;;5053871;28;20044;-74
2021/12/09 00:55:57;;;;;;;13.50;4.50;;;4.60;99.90;;;;;;5053581;28;20029;-73
2021/12/09 00:58:23;;;;;;;13.60;5.20;;;4.60;99.90;;;;;;5053786;28;20378;-77
2021/12/09 01:00:49;;;;;;;12.13;3.63;;;4.60;99.90;;;;;;5053774;28;20107;-74
2021/12/09 01:03:16;;;;;;;12.77;2.92;;;4.60;99.90;;;;;;5053482;28;20129;-72
2021/12/09 01:05:44;;;;;;;8.82;2.92;;;4.60;99.90;;;;;;5053445;28;20104;-73
2021/12/09 01:08:10;;;;;;;7.15;2.75;;;4.60;99.90;;;;;;5053600;28;20447;-77
2021/12/09 01:10:36;;;;;;;13.88;3.55;;;4.60;99.90;;;;;;5053349;28;20075;-73
2021/12/09 01:13:02;;;;;;;7.65;2.53;;;4.70;99.90;;;;;;5053289;28;20444;-71
2021/12/09 01:15:28;;;;;;;10.68;3.80;;;4.60;99.90;;;;;;5053318;28;20029;-75
2021/12/09 01:17:54;;;;;;;10.38;2.83;;;4.60;99.90;;;;;;5053265;28;20021;-73
2021/12/09 01:20:25;;;;;;;9.45;2.50;;;4.60;99.90;;;;;;5053191;28;20025;-75
2021/12/09 01:22:53;;;;;;;12.00;4.07;;;4.60;99.90;;;;;;5053265;28;20025;-73
2021/12/09 01:25:20;;;;;;;12.50;4.18;;;4.60;99.90;;;;;;5053070;28;20036;-74
2021/12/09 01:27:47;;;;;;;21.85;6.32;;;4.60;99.90;;;;;;5052881;28;20037;-72
2021/12/09 01:30:16;;;;;;;10.32;3.13;;;4.60;99.90;;;;;;5053410;28;20025;-73
2021/12/09 01:32:49;;;;;;;11.27;4.00;;;4.60;99.90;;;;;;5053094;28;20511;-72
2021/12/09 01:35:17;;;;;;;10.50;4.38;;;4.60;99.90;;;;;;5053092;28;20473;-74
2021/12/09 01:37:44;;;;;;;6.75;2.50;;;4.70;99.90;;;;;;5051834;28;20029;-71
2021/12/09 01:40:10;;;;;;;11.93;3.45;;;4.60;99.90;;;;;;5053037;28;20020;-74
2021/12/09 01:42:36;;;;;;;8.10;2.55;;;4.60;99.90;;;;;;5053051;28;20374;-73
2021/12/09 01:45:03;;;;;;;7.05;3.25;;;4.60;99.90;;;;;;5053247;28;20112;-72
2021/12/09 01:47:29;;;;;;;11.60;3.15;;;4.60;99.90;;;;;;5052899;28;20120;-76
2021/12/09 01:49:55;;;;;;;8.07;3.58;;;4.60;99.90;;;;;;5056020;28;20104;-75
2021/12/09 01:52:21;;;;;;;6.40;2.35;;;4.60;99.90;;;;;;5057254;28;20104;-73
2021/12/09 01:54:46;;;;;;;13.32;4.65;;;4.60;99.90;;;;;;5056925;28;20120;-72
2021/12/09 01:57:12;;;;;;;9.85;3.70;;;4.60;99.90;;;;;;5056912;28;20029;-75
2021/12/09 01:59:38;;;;;;;14.02;4.70;;;4.70;99.90;;;;;;5057110;28;20091;-76
2021/12/09 02:02:04;;;;;;;14.57;3.33;;;4.70;99.90;;;;;;5056809;28;20099;-76
2021/12/09 02:04:30;;;;;;;7.53;2.13;;;4.60;99.90;;;;;;5056994;28;20033;-71
2021/12/09 02:06:55;;;;;;;8.25;2.35;;;4.50;99.90;;;;;;5056896;28;20021;-75
2021/12/09 02:09:21;;;;;;;6.97;2.35;;;4.60;99.90;;;;;;5056634;28;20071;-76
2021/12/09 02:11:47;;;;;;;13.00;3.00;;;4.60;99.90;;;;;;5056936;28;20021;-73
2021/12/09 02:14:13;;;;;;;10.25;3.83;;;4.50;99.90;;;;;;5057132;28;20151;-74
2021/12/09 02:16:40;;;;;;;6.93;2.10;;;4.60;99.90;;;;;;5056535;28;20025;-72
2021/12/09 02:19:08;;;;;;;8.38;2.97;;;4.60;99.90;;;;;;5056741;28;20029;-72
2021/12/09 02:21:35;;;;;;;6.03;1.85;;;4.50;99.90;;;;;;5055176;28;20032;-73
2021/12/09 02:24:05;;;;;;;7.68;2.80;;;4.50;99.90;;;;;;5056494;28;20056;-75
2021/12/09 02:26:34;;;;;;;11.93;2.50;;;4.50;99.90;;;;;;5056606;28;20103;-72
2021/12/09 02:29:01;;;;;;;5.35;2.42;;;4.50;99.90;;;;;;5056349;28;20033;-73
2021/12/09 02:31:28;;;;;;;9.65;2.78;;;4.50;99.90;;;;;;5056256;28;20024;-75
2021/12/09 02:33:54;;;;;;;9.05;2.53;;;4.50;99.90;;;;;;5056222;28;20032;-72
2021/12/09 02:36:20;;;;;;;8.07;1.58;;;4.50;99.90;;;;;;5056214;28;20354;-73
2021/12/09 02:38:46;;;;;;;6.75;2.10;;;4.50;99.90;;;;;;5056405;28;20044;-73
2021/12/09 02:41:18;;;;;;;4.40;1.70;;;4.50;99.90;;;;;;5056121;28;20025;-74
2021/12/09 02:43:46;;;;;;;7.55;1.90;;;4.50;99.90;;;;;;5056371;28;20028;-75
2021/12/09 02:46:12;;;;;;;5.57;1.88;;;4.50;99.90;;;;;;5055943;28;20051;-77
2021/12/09 02:48:38;;;;;;;5.90;2.28;;;4.50;99.90;;;;;;5056147;28;20366;-72
2021/12/09 02:51:05;;;;;;;6.72;2.08;;;4.50;99.90;;;;;;5055927;28;20028;-72
2021/12/09 02:53:33;;;;;;;8.32;2.40;;;4.50;99.90;;;;;;5055845;28;20025;-75
2021/12/09 02:55:58;;;;;;;8.77;3.08;;;4.50;99.90;;;;;;5055843;28;20500;-72
2021/12/09 02:58:24;;;;;;;10.30;2.33;;;4.50;99.90;;;;;;5055742;28;20032;-77
2021/12/09 03:00:57;;;;;;;8.30;2.50;;;4.50;99.90;;;;;;5055210;28;20108;-74
2021/12/09 03:03:23;;;;;;;4.05;1.90;;;4.50;99.90;;;;;;5055951;28;20063;-71
2021/12/09 03:05:53;;;;;;;11.13;3.40;;;4.50;99.90;;;;;;5055610;28;20029;-75
2021/12/09 03:08:24;;;;;;;6.10;1.90;;;4.50;99.90;;;;;;5055801;28;20070;-77
2021/12/09 03:10:49;;;;;;;7.75;2.25;;;4.50;99.90;;;;;;5055568;28;20021;-73
2021/12/09 03:13:17;;;;;;;7.70;2.40;;;4.50;99.90;;;;;;5055508;28;20029;-76
2021/12/09 03:15:42;;;;;;;6.03;2.58;;;4.50;99.90;;;;;;5056008;28;20104;-72
2021/12/09 03:18:08;;;;;;;12.20;2.70;;;4.50;99.90;;;;;;5055653;28;20100;-72
2021/12/09 03:20:34;;;;;;;11.23;3.03;;;4.50;99.90;;;;;;5055316;28;20018;-74
2021/12/09 03:23:00;;;;;;;8.38;3.13;;;4.60;99.90;;;;;;5055217;28;20104;-71
2021/12/09 03:25:26;;;;;;;7.82;2.20;;;4.50;99.90;;;;;;5055244;28;20075;-73
2021/12/09 03:27:51;;;;;;;9.85;2.17;;;4.50;99.90;;;;;;5055102;28;20049;-71
2021/12/09 03:30:19;;;;;;;9.93;2.22;;;4.50;99.90;;;;;;5055116;28;20025;-72
2021/12/09 03:32:45;;;;;;;7.93;2.10;;;4.60;99.90;;;;;;5055368;28;20489;-74
2021/12/09 03:35:12;;;;;;;7.72;2.13;;;4.60;99.90;;;;;;5055088;28;20028;-73
2021/12/09 03:37:39;;;;;;;9.02;2.50;;;4.70;99.90;;;;;;5055053;28;20029;-72
2021/12/09 03:40:07;;;;;;;8.57;1.95;;;4.70;99.90;;;;;;5055014;28;20370;-77
2021/12/09 03:42:33;;;;;;;4.57;1.80;;;4.70;99.90;;;;;;5054844;28;20025;-75
2021/12/09 03:45:00;;;;;;;5.60;1.90;;;4.80;99.90;;;;;;5055150;28;20028;-72
2021/12/09 03:47:29;;;;;;;5.82;1.88;;;4.80;99.90;;;;;;5054751;28;20529;-73
2021/12/09 03:49:59;;;;;;;9.80;2.72;;;4.70;99.90;;;;;;5055230;28;20025;-71
2021/12/09 03:52:26;;;;;;;5.50;2.45;;;4.70;99.90;;;;;;5055116;28;20055;-74
2021/12/09 03:54:52;;;;;;;6.13;1.67;;;4.70;99.90;;;;;;5054665;28;20017;-75
2021/12/09 03:57:17;;;;;;;7.20;2.33;;;4.70;99.90;;;;;;5054634;28;20059;-73
2021/12/09 03:59:45;;;;;;;12.57;1.92;;;4.80;99.90;;;;;;5053301;28;20151;-75
2021/12/09 04:02:11;;;;;;;7.15;2.08;;;4.70;99.90;;;;;;5054800;28;20033;-74
2021/12/09 04:04:37;;;;;;;5.38;1.98;;;4.70;99.90;;;;;;5054480;28;20029;-70
2021/12/09 04:07:03;;;;;;;6.97;2.38;;;4.70;99.90;;;;;;5054910;28;20025;-74
2021/12/09 04:09:29;;;;;;;7.60;1.98;;;4.70;99.90;;;;;;5054430;28;20020;-75
2021/12/09 04:11:55;;;;;;;7.80;2.25;;;4.60;99.90;;;;;;5052264;28;20456;-77
2021/12/09 04:14:21;;;;;;;7.68;2.35;;;4.60;99.90;;;;;;5054349;28;20057;-74
2021/12/09 04:16:49;;;;;;;10.23;2.60;;;4.60;99.90;;;;;;5054333;28;20021;-75
2021/12/09 04:19:15;;;;;;;7.72;2.13;;;4.60;99.90;;;;;;5054222;28;20048;-74
2021/12/09 04:21:42;;;;;;;10.35;2.13;;;4.50;99.90;;;;;;5054475;28;20025;-74
2021/12/09 04:24:09;;;;;;;10.90;2.30;;;4.50;99.90;;;;;;5054091;28;20017;-71
2021/12/09 04:26:41;;;;;;;13.88;3.78;;;4.50;99.90;;;;;;5053841;28;20044;-74
2021/12/09 04:29:09;;;;;;;7.05;2.22;;;4.50;99.90;;;;;;5054803;28;20056;-74
2021/12/09 04:31:35;;;;;;;8.07;2.00;;;4.50;99.90;;;;;;5054022;28;20090;-74
2021/12/09 04:34:02;;;;;;;9.90;2.67;;;4.50;99.90;;;;;;5053952;28;20017;-76
2021/12/09 04:36:27;;;;;;;7.22;1.60;;;4.40;99.90;;;;;;5053926;28;20021;-75
2021/12/09 04:38:55;;;;;;;16.00;2.63;;;4.40;99.90;;;;;;5053896;28;20033;-75
2021/12/09 04:41:21;;;;;;;9.30;2.33;;;4.40;99.90;;;;;;5054092;28;20032;-75
2021/12/09 04:43:47;;;;;;;5.03;1.70;;;4.40;99.90;;;;;;5053790;28;20017;-72
2021/12/09 04:46:14;;;;;;;9.63;4.20;;;4.50;99.90;;;;;;5054280;28;20074;-75
2021/12/09 04:48:41;;;;;;;18.67;5.68;;;4.50;99.90;;;;;;5053605;28;20076;-74
2021/12/09 04:51:07;;;;;;;20.58;5.72;;;4.50;99.90;;;;;;5053951;28;20112;-75
2021/12/09 04:53:33;;;;;;;16.13;4.18;;;4.40;99.90;;;;;;5054119;28;20099;-72
2021/12/09 04:55:59;;;;;;;8.38;2.05;;;4.40;99.90;;;;;;5053595;28;20024;-73
2021/12/09 04:58:26;;;;;;;11.38;2.08;;;4.50;99.90;;;;;;5054042;28;20056;-72
2021/12/09 05:00:54;;;;;;;9.55;2.08;;;4.40;99.90;;;;;;5053760;28;20028;-75
2021/12/09 05:03:20;;;;;;;11.18;2.67;;;4.40;99.90;;;;;;5053726;28;20070;-73
2021/12/09 05:05:52;;;;;;;6.53;2.22;;;4.40;99.90;;;;;;5053714;28;20056;-72
2021/12/09 05:08:20;;;;;;;21.60;9.48;;;4.40;99.90;;;;;;5053374;28;20021;-74
2021/12/09 05:11:02;;;;;;;14.82;6.78;;;4.40;99.90;;;;;;5053384;28;20024;-70
2021/12/09 05:13:30;;;;;;;30.55;15.18;;;4.50;99.90;;;;;;5051901;28;20076;-72
2021/12/09 05:15:57;;;;;;;17.95;8.90;;;4.50;99.90;;;;;;5053847;28;20429;-72
2021/12/09 05:18:24;;;;;;;25.08;12.05;;;4.50;99.90;;;;;;5053528;28;20052;-73
2021/12/09 05:20:50;;;;;;;28.83;18.83;;;4.50;99.90;;;;;;5053213;28;20392;-74
2021/12/09 05:23:18;;;;;;;10.50;4.50;;;4.50;99.90;;;;;;5053264;28;20021;-75
2021/12/09 05:25:44;;;;;;;23.55;11.35;;;4.50;99.90;;;;;;5053223;28;20063;-75
2021/12/09 05:28:12;;;;;;;19.25;9.95;;;4.50;99.90;;;;;;5052635;28;20067;-72
2021/12/09 05:32:07;;;;;;;16.38;7.65;;;4.50;99.90;;;;;;5053404;28;20591;-74
2021/12/09 05:33:24;;;;;;;13.13;3.90;;;4.50;99.90;;;;;;5052827;28;20539;-70
2021/12/09 05:35:49;;;;;;;14.93;7.45;;;4.40;99.90;;;;;;5053109;28;20025;-74
2021/12/09 05:38:15;;;;;;;11.35;4.72;;;4.40;99.90;;;;;;5053058;28;20402;-73
2021/12/09 05:40:41;;;;;;;10.82;3.20;;;4.50;99.90;;;;;;5053055;28;20067;-73
2021/12/09 05:43:06;;;;;;;11.85;3.75;;;4.50;99.90;;;;;;5052999;28;20035;-74
2021/12/09 05:45:32;;;;;;;7.43;2.17;;;4.50;99.90;;;;;;5053269;28;20040;-75
2021/12/09 05:47:57;;;;;;;8.60;2.38;;;4.50;99.90;;;;;;5053188;28;20028;-73
2021/12/09 05:50:23;;;;;;;7.47;2.58;;;4.50;99.90;;;;;;5052962;28;20032;-75
2021/12/09 05:52:49;;;;;;;11.05;3.90;;;4.50;99.90;;;;;;5053245;28;20031;-74
2021/12/09 05:55:15;;;;;;;7.63;2.83;;;4.50;99.90;;;;;;5053177;28;20385;-73
2021/12/09 05:57:41;;;;;;;7.60;2.58;;;4.50;99.90;;;;;;5053195;28;20021;-76
2021/12/09 06:00:08;;;;;;;12.88;2.88;;;4.50;99.90;;;;;;5052898;28;20112;-73
2021/12/09 06:02:35;;;;;;;9.38;2.95;;;4.50;99.90;;;;;;5053384;28;20021;-73
2021/12/09 06:05:02;;;;;;;8.77;3.35;;;4.50;99.90;;;;;;5052807;28;20065;-75
2021/12/09 06:07:28;;;;;;;15.63;6.78;;;4.60;99.90;;;;;;5052715;28;20025;-72
2021/12/09 06:09:55;;;;;;;16.48;7.15;;;4.50;99.90;;;;;;5052811;28;20074;-74
2021/12/09 06:12:21;;;;;;;14.90;5.05;;;4.60;99.90;;;;;;5053008;28;20018;-75
2021/12/09 06:14:46;;;;;;;9.57;3.58;;;4.50;99.90;;;;;;5052743;28;20021;-70
2021/12/09 06:17:12;;;;;;;10.98;3.83;;;4.50;99.90;;;;;;5052989;28;20092;-75
2021/12/09 06:19:38;;;;;;;10.80;2.90;;;4.50;99.90;;;;;;5052699;28;20108;-72
2021/12/09 06:22:04;;;;;;;9.68;2.45;;;4.40;99.90;;;;;;5052672;28;20503;-75
2021/12/09 06:24:29;;;;;;;9.30;2.67;;;4.50;99.90;;;;;;5052621;28;20032;-74
2021/12/09 06:26:55;;;;;;;8.75;2.10;;;4.50;99.90;;;;;;5052552;28;20591;-74
2021/12/09 06:29:21;;;;;;;11.13;2.03;;;4.50;99.90;;;;;;5052634;28;20104;-71
2021/12/09 06:31:46;;;;;;;6.18;2.45;;;4.40;99.90;;;;;;5052611;28;20021;-74
2021/12/09 06:34:12;;;;;;;10.77;3.05;;;4.40;99.90;;;;;;5052732;28;20079;-72
2021/12/09 06:36:40;;;;;;;9.27;3.25;;;4.40;99.90;;;;;;5056202;28;20021;-73
2021/12/09 06:39:06;;;;;;;6.18;2.15;;;4.40;99.90;;;;;;5056171;28;20021;-75
2021/12/09 06:41:32;;;;;;;10.57;3.85;;;4.40;99.90;;;;;;5056404;28;20067;-74
2021/12/09 06:43:57;;;;;;;14.85;6.72;;;4.40;99.90;;;;;;5056362;28;20362;-72
2021/12/09 06:46:23;;;;;;;35.08;14.93;;;4.50;99.90;;;;;;5055946;28;20021;-72
2021/12/09 06:48:49;;;;;;;42.60;21.08;;;4.50;99.90;;;;;;5055893;28;20021;-71
2021/12/09 06:51:14;;;;;;;40.83;24.52;;;4.50;99.90;;;;;;5056478;28;20017;-77
2021/12/09 06:53:40;;;;;;;17.48;6.47;;;4.60;99.90;;;;;;5055849;28;20021;-74
2021/12/09 06:56:06;;;;;;;41.85;22.30;;;4.60;99.90;;;;;;5055836;28;20358;-73
2021/12/09 06:58:33;;;;;;;43.47;20.50;;;4.60;99.90;;;;;;5055760;28;20036;-74
2021/12/09 07:01:00;;;;;;;12.98;3.33;;;4.70;99.90;;;;;;5055571;28;20028;-74
2021/12/09 07:03:26;;;;;;;12.77;3.95;;;4.70;99.90;;;;;;5055699;28;20036;-72
2021/12/09 07:05:53;;;;;;;11.38;3.13;;;4.70;99.90;;;;;;5055662;28;20508;-73
2021/12/09 07:08:20;;;;;;;11.68;4.00;;;4.60;99.90;;;;;;5055513;28;20108;-76
2021/12/09 07:10:47;;;;;;;14.90;7.90;;;4.70;99.90;;;;;;5055554;28;20025;-76
2021/12/09 07:13:13;;;;;;;14.27;6.22;;;4.70;99.90;;;;;;5055531;28;20393;-73
2021/12/09 07:15:39;;;;;;;13.55;6.40;;;4.70;99.90;;;;;;5055492;28;20013;-74
2021/12/09 07:18:05;;;;;;;14.73;6.53;;;4.80;99.90;;;;;;5055441;28;20082;-75
2021/12/09 07:20:33;;;;;;;17.67;9.32;;;4.80;99.90;;;;;;5054085;28;20435;-75
2021/12/09 07:22:59;;;;;;;21.88;14.88;;;4.90;99.90;;;;;;5055236;28;20071;-76
2021/12/09 07:25:27;;;;;;;17.42;9.23;;;4.90;99.90;;;;;;5055286;28;20036;-72
2021/12/09 07:27:53;;;;;;;17.85;7.65;;;4.90;99.90;;;;;;5054978;28;20501;-72
2021/12/09 07:30:21;;;;;;;17.30;6.65;;;4.90;99.90;;;;;;5053900;28;20021;-74
2021/12/09 07:32:47;;;;;;;15.88;6.15;;;4.90;99.90;;;;;;5055148;28;20017;-74
2021/12/09 07:35:15;;;;;;;14.10;5.85;;;4.90;99.90;;;;;;5055643;28;20043;-75
2021/12/09 07:37:43;;;;;;;10.05;4.53;;;5.00;99.90;;;;;;5055301;28;20029;-72
2021/12/09 07:40:12;;;;;;;12.65;5.68;;;4.90;99.90;;;;;;5053725;28;20432;-78
2021/12/09 07:42:38;;;;;;;11.07;5.07;;;5.00;99.90;;;;;;5055514;28;20032;-77
2021/12/09 07:45:07;;;;;;;7.57;3.42;;;5.00;99.90;;;;;;5054884;28;20021;-74
2021/12/09 07:47:33;;;;;;;10.63;3.67;;;5.10;99.90;;;;;;5055036;28;20040;-76
2021/12/09 07:49:58;;;;;;;12.30;3.97;;;5.10;99.90;;;;;;5055072;28;20025;-73
2021/12/09 07:52:24;;;;;;;10.75;3.20;;;5.20;99.90;;;;;;5054132;28;20482;-77
2021/12/09 07:54:50;;;;;;;10.95;3.13;;;5.20;99.90;;;;;;5036197;28;20028;-74
2021/12/09 07:57:15;;;;;;;9.85;5.22;;;5.10;99.90;;;;;;5047013;28;20069;-73
2021/12/09 07:59:41;;;;;;;10.50;3.92;;;5.10;99.90;;;;;;5054571;28;20438;-73
2021/12/09 08:02:07;;;;;;;9.60;3.85;;;5.20;99.90;;;;;;5043008;28;20033;-75
2021/12/09 08:04:33;;;;;;;8.55;3.47;;;5.10;99.90;;;;;;5049503;28;20416;-76
2021/12/09 08:06:59;;;;;;;6.47;2.60;;;5.20;99.90;;;;;;5054158;28;20029;-72
2021/12/09 08:09:25;;;;;;;5.20;1.90;;;5.30;99.90;;;;;;5053198;28;20027;-76
2021/12/09 08:11:51;;;;;;;7.38;2.47;;;5.30;99.90;;;;;;5054687;28;20105;-75
2021/12/09 08:14:18;;;;;;;7.30;1.77;;;5.30;99.90;;;;;;5041038;28;20045;-78
2021/12/09 08:16:44;;;;;;;7.60;3.10;;;5.40;99.90;;;;;;5034578;28;20025;-75
2021/12/09 08:19:12;;;;;;;7.35;3.35;;;5.40;99.90;;;;;;5034929;28;20028;-75
2021/12/09 08:21:40;;;;;;;11.27;3.92;;;5.40;99.90;;;;;;5033702;28;20105;-74
2021/12/09 08:24:08;;;;;;;5.97;3.45;;;5.40;99.90;;;;;;5032880;28;20029;-74
2021/12/09 08:26:35;;;;;;;8.95;4.22;;;5.40;99.90;;;;;;5039701;28;20041;-73
2021/12/09 08:29:02;;;;;;;10.43;5.40;;;5.40;99.90;;;;;;5053221;28;20021;-75
2021/12/09 08:31:30;;;;;;;13.88;6.75;;;5.40;99.90;;;;;;5053855;28;20103;-73
2021/12/09 08:33:56;;;;;;;14.38;7.97;;;5.40;99.90;;;;;;5035673;28;20469;-73
2021/12/09 08:36:22;;;;;;;18.58;11.60;;;5.40;99.90;;;;;;5036168;28;20047;-73
2021/12/09 08:38:48;;;;;;;21.33;10.35;;;5.40;99.90;;;;;;5054559;28;20021;-79
2021/12/09 08:41:15;;;;;;;17.17;9.90;;;5.30;99.90;;;;;;5039355;28;20450;-75
2021/12/09 08:43:41;;;;;;;21.20;10.10;;;5.40;99.90;;;;;;5043314;28;20106;-74
2021/12/09 08:46:06;;;;;;;22.85;11.98;;;5.40;99.90;;;;;;5034233;28;20084;-74
2021/12/09 08:48:32;;;;;;;20.40;10.35;;;5.50;99.90;;;;;;5034781;28;20498;-75
2021/12/09 08:50:58;;;;;;;20.13;8.35;;;5.50;99.90;;;;;;5044620;28;20068;-73
2021/12/09 08:53:25;;;;;;;20.02;9.43;;;5.60;99.90;;;;;;5032824;28;20021;-75
2021/12/09 08:55:52;;;;;;;24.80;13.18;;;5.60;99.90;;;;;;5033552;28;20018;-73
2021/12/09 08:58:17;;;;;;;23.50;11.13;;;5.70;99.90;;;;;;5032949;28;20031;-71
2021/12/09 09:00:46;;;;;;;13.52;7.05;;;5.50;99.90;;;;;;5033400;28;20029;-74
2021/12/09 09:03:12;;;;;;;13.00;5.03;;;5.50;99.90;;;;;;5049192;28;20052;-74
2021/12/09 09:05:40;;;;;;;12.57;5.95;;;5.50;99.90;;;;;;5053367;28;20033;-72
2021/12/09 09:08:06;;;;;;;18.73;12.23;;;5.50;99.90;;;;;;5052684;28;20044;-75
2021/12/09 09:10:35;;;;;;;22.30;10.57;;;5.60;99.90;;;;;;5050606;28;20572;-75
2021/12/09 09:13:01;;;;;;;24.80;12.25;;;5.50;99.90;;;;;;5053673;28;20540;-73
2021/12/09 09:15:31;;;;;;;18.45;9.45;;;5.50;99.90;;;;;;5053225;28;20021;-73
2021/12/09 09:17:57;;;;;;;29.92;14.65;;;5.60;99.90;;;;;;5053320;28;20079;-74
2021/12/09 09:20:25;;;;;;;34.88;13.57;;;5.50;99.90;;;;;;5048058;28;20111;-75
2021/12/09 09:22:51;;;;;;;38.63;16.42;;;5.50;99.90;;;;;;5033356;28;20018;-76
2021/12/09 09:25:22;;;;;;;40.80;15.88;;;5.60;99.90;;;;;;5033283;28;20381;-79
2021/12/09 09:27:48;;;;;;;34.47;11.32;;;5.60;99.90;;;;;;5032493;28;20564;-76
2021/12/09 09:30:18;;;;;;;24.55;9.88;;;5.60;99.90;;;;;;5042432;28;20064;-79
2021/12/09 09:32:50;;;;;;;24.20;9.65;;;5.70;99.90;;;;;;5033869;28;20017;-75
2021/12/09 09:35:17;;;;;;;26.38;9.07;;;5.70;99.90;;;;;;5053139;28;20108;-71
2021/12/09 09:37:44;;;;;;;32.42;11.88;;;5.70;99.90;;;;;;5051519;28;20032;-73
2021/12/09 09:40:13;;;;;;;41.05;15.63;;;5.70;99.90;;;;;;5052645;28;20102;-70
2021/12/09 09:45:08;;;;;;;17.70;7.05;;;5.60;99.90;;;;;;5051777;28;20037;-74
2021/12/09 09:47:34;;;;;;;19.35;6.25;;;5.70;99.90;;;;;;5044515;28;20061;-72
2021/12/09 09:49:59;;;;;;;13.18;4.15;;;5.70;99.90;;;;;;5032978;28;20072;-75
2021/12/09 09:52:26;;;;;;;11.48;4.15;;;5.80;99.90;;;;;;5033329;28;20022;-75
2021/12/09 09:54:54;;;;;;;12.85;4.53;;;5.80;99.90;;;;;;5034005;28;20367;-75
2021/12/09 09:57:20;;;;;;;16.25;4.65;;;5.80;99.90;;;;;;5051702;28;20496;-76
2021/12/09 09:59:46;;;;;;;14.48;4.80;;;5.90;99.90;;;;;;5051428;28;20037;-77
2021/12/09 10:02:13;;;;;;;11.75;4.53;;;5.90;99.90;;;;;;5053132;28;20018;-75
2021/12/09 10:07:06;;;;;;;16.88;5.90;;;5.90;99.90;;;;;;5033036;28;20163;-76
2021/12/09 10:09:32;;;;;;;14.63;5.60;;;6.00;99.90;;;;;;5033479;28;20018;-73
2021/12/09 10:11:59;;;;;;;19.55;9.63;;;6.00;99.90;;;;;;5054885;28;20104;-74
2021/12/09 10:14:28;;;;;;;20.63;11.13;;;6.00;99.90;;;;;;5045042;28;20202;-73
2021/12/09 10:17:08;;;;;;;15.40;8.52;;;6.10;99.90;;;;;;5054761;28;20171;-75
2021/12/09 10:19:37;;;;;;;20.27;11.48;;;6.10;99.90;;;;;;5037747;28;20025;-73
2021/12/09 10:22:06;;;;;;;18.27;10.18;;;6.00;99.90;;;;;;5056518;28;20032;-74
2021/12/09 10:24:32;;;;;;;18.38;11.48;;;6.20;99.90;;;;;;5039009;28;20022;-74
2021/12/09 10:26:58;;;;;;;15.07;7.85;;;6.30;99.90;;;;;;5036630;28;20513;-77
2021/12/09 10:29:40;;;;;;;12.90;6.43;;;6.40;99.90;;;;;;5036718;28;20025;-72
2021/12/09 10:32:11;;;;;;;11.60;5.50;;;6.50;99.90;;;;;;5046202;28;20419;-75
2021/12/09 10:34:40;;;;;;;15.45;8.35;;;6.70;99.90;;;;;;5037379;28;20053;-72
2021/12/09 10:37:22;;;;;;;14.48;7.22;;;6.80;99.90;;;;;;5036659;28;20013;-74
2021/12/09 10:39:52;;;;;;;20.83;10.30;;;6.90;99.90;;;;;;5036549;28;20025;-72
2021/12/09 10:42:25;;;;;;;34.75;20.08;;;6.90;99.90;;;;;;5035905;28;20013;-72
2021/12/09 10:44:55;;;;;;;13.15;5.20;;;7.00;99.90;;;;;;5037660;28;20044;-74
2021/12/09 10:47:58;;;;;;;14.35;4.95;;;7.00;99.90;;;;;;5045057;28;20017;-77
2021/12/09 10:53:17;;;;;;;20.95;9.15;;;7.20;99.90;;;;;;5035630;28;20025;-74
2021/12/09 10:55:45;;;;;;;19.88;9.43;;;7.20;99.90;;;;;;5034409;28;20036;-74
2021/12/09 10:58:14;;;;;;;25.48;12.77;;;7.40;99.90;;;;;;5039683;28;20105;-73
2021/12/09 11:00:44;;;;;;;17.25;8.40;;;7.40;99.90;;;;;;5055788;28;20446;-74
2021/12/09 11:03:19;;;;;;;20.02;8.13;;;7.50;99.90;;;;;;5054288;28;20025;-75
2021/12/09 11:05:48;;;;;;;11.43;4.78;;;7.60;99.90;;;;;;5037916;28;20051;-75
2021/12/09 11:08:21;;;;;;;21.17;7.97;;;7.60;99.90;;;;;;5048723;28;20028;-74
2021/12/09 11:10:49;;;;;;;8.20;3.63;;;7.60;99.90;;;;;;5035545;28;20075;-74
2021/12/09 11:13:18;;;;;;;7.75;2.30;;;7.60;99.90;;;;;;5050384;28;20020;-74
2021/12/09 11:15:53;;;;;;;7.60;2.50;;;7.70;99.90;;;;;;5045391;28;20053;-73
2021/12/09 11:18:41;;;;;;;14.30;4.22;;;7.80;99.90;;;;;;5053649;28;20032;-75
2021/12/09 11:21:19;;;;;;;35.60;19.35;;;7.80;99.90;;;;;;5051774;28;20436;-74
2021/12/09 11:23:55;;;;;;;15.00;6.80;;;7.90;99.90;;;;;;5055317;28;20033;-73
2021/12/09 11:30:07;;;;;;;11.82;3.22;;;8.00;99.90;;;;;;5055167;28;20055;-73
2021/12/09 11:35:18;;;;;;;7.82;2.60;;;8.00;99.90;;;;;;5055157;28;20051;-73
2021/12/09 11:37:52;;;;;;;12.63;5.90;;;8.00;99.90;;;;;;5055146;28;20021;-72
2021/12/09 11:40:40;;;;;;;15.52;5.88;;;8.00;99.90;;;;;;5055359;28;20053;-71
2021/12/09 11:43:07;;;;;;;14.73;5.43;;;8.00;99.90;;;;;;5055291;28;20028;-75
2021/12/09 11:45:47;;;;;;;34.90;17.88;;;8.00;99.90;;;;;;5055202;28;20362;-70
2021/12/09 11:48:15;;;;;;;17.10;8.25;;;8.00;99.90;;;;;;5054788;28;20029;-73
2021/12/09 11:50:46;;;;;;;11.35;5.13;;;8.00;99.90;;;;;;5053709;28;20100;-75
2021/12/09 11:53:14;;;;;;;18.27;7.82;;;8.00;99.90;;;;;;5055126;28;20032;-73
2021/12/09 11:55:45;;;;;;;9.98;3.40;;;8.00;99.90;;;;;;5054778;28;20021;-71
2021/12/09 11:58:36;;;;;;;21.75;8.20;;;8.10;99.90;;;;;;5055028;28;20056;-72
2021/12/09 12:12:35;;;;;;;8.13;2.95;;;8.10;99.90;;;;;;5054452;28;20063;-71
2021/12/09 12:18:45;;;;;;;7.22;2.75;;;8.20;99.90;;;;;;5054322;28;20440;-74
2021/12/09 12:21:20;;;;;;;6.78;2.05;;;8.20;99.90;;;;;;5052812;28;20068;-71
2021/12/09 12:39:57;;;;;;;7.18;3.15;;;8.20;99.90;;;;;;5054579;28;20029;-72
2021/12/09 12:47:56;;;;;;;11.95;3.97;;;8.20;99.90;;;;;;5053691;28;20049;-72
2021/12/09 12:50:23;;;;;;;16.60;4.10;;;8.20;99.90;;;;;;5053794;28;20389;-73
2021/12/09 12:52:49;;;;;;;8.93;3.55;;;8.30;99.90;;;;;;5053707;28;20047;-74
2021/12/09 12:55:24;;;;;;;8.90;4.07;;;8.20;99.90;;;;;;5053679;28;20481;-72
2021/12/09 12:57:51;;;;;;;9.32;3.75;;;8.20;99.90;;;;;;5053654;28;20021;-73
2021/12/09 13:00:19;;;;;;;12.73;4.22;;;8.30;99.90;;;;;;5053561;28;20397;-72
2021/12/09 13:08:42;;;;;;;16.45;4.85;;;8.40;99.90;;;;;;5034987;28;20203;-76
2021/12/09 13:11:15;;;;;;;14.52;5.68;;;8.40;99.90;;;;;;5041879;28;20017;-74
2021/12/09 13:19:15;;;;;;;144.50;47.67;;;8.30;99.90;;;;;;5053832;28;20032;-74
2021/12/09 13:21:51;;;;;;;159.73;54.40;;;8.30;99.90;;;;;;5053605;28;20081;-76
2021/12/09 13:24:44;;;;;;;24.83;14.25;;;8.30;99.90;;;;;;5036694;28;20025;-75
2021/12/09 13:38:34;;;;;;;23.35;13.32;;;8.40;99.90;;;;;;5033006;28;20063;-74
2021/12/09 13:49:07;;;;;;;20.80;11.93;;;8.40;99.90;;;;;;5051300;28;20027;-74
2021/12/09 13:54:23;;;;;;;;;;;8.40;99.90;;;;;;5055797;28;20028;-76
2021/12/09 13:56:58;;;;;;;16.77;8.32;;;8.40;99.90;;;;;;5057308;28;19911;-79
2021/12/09 13:59:27;;;;;;;15.98;9.40;;;8.40;99.90;;;;;;5056393;28;20017;-74
2021/12/09 14:01:55;;;;;;;14.15;9.25;;;8.40;99.90;;;;;;5057105;28;20103;-74
2021/12/09 14:04:23;;;;;;;18.38;9.82;;;8.40;99.90;;;;;;5046612;28;20560;-73
2021/12/09 14:06:56;;;;;;;14.95;9.10;;;8.40;99.90;;;;;;5042755;28;20040;-77
2021/12/09 14:09:23;;;;;;;18.13;8.80;;;8.50;99.90;;;;;;5038537;28;20118;-76
2021/12/09 14:11:50;;;;;;;11.65;8.25;;;8.50;99.90;;;;;;5056687;28;20112;-75
2021/12/09 14:14:25;;;;;;;17.40;9.52;;;8.50;99.90;;;;;;5056959;28;20071;-74
2021/12/09 14:16:59;;;;;;;13.18;7.13;;;8.50;99.90;;;;;;5056953;28;20033;-71
2021/12/09 14:21:51;;;;;;;15.20;7.68;;;8.50;99.90;;;;;;5057280;28;20025;-73